sensor_id;sensor_type;location;lat;lon;timestamp;P1;durP1;ratioP1;P2;durP2;ratioP2
60919;SDS011;59039;52.108;19.942;2023-01-10T00:01:06;54.90;;;22.90;;
60919;SDS011;59039;52.108;19.942;2023-01-10T00:03:35;55.50;;;25.50;;
60919;SDS011;59039;52.108;19.942;2023-01-10T00:06:01;60.90;;;25.30;;
60919;SDS011;59039;52.108;19.942;2023-01-10T00:08:35;65.40;;;26.40;;
60919;SDS011;59039;52.108;19.942;2023-01-10T00:11:01;54.30;;;23.80;;
60919;SDS011;59039;52.108;19.942;2023-01-10T00:13:26;56.90;;;26.00;;
60919;SDS011;59039;52.108;19.942;2023-01-10T00:15:54;62.00;;;25.20;;
60919;SDS011;59039;52.108;19.942;2023-01-10T00:18:20;69.40;;;28.80;;
60919;SDS011;59039;52.108;19.942;2023-01-10T00:20:46;65.30;;;29.50;;
60919;SDS011;59039;52.108;19.942;2023-01-10T00:23:12;67.80;;;29.30;;
60919;SDS011;59039;52.108;19.942;2023-01-10T00:25:38;66.10;;;28.30;;
60919;SDS011;59039;52.108;19.942;2023-01-10T00:28:04;68.70;;;28.50;;
60919;SDS011;59039;52.108;19.942;2023-01-10T00:30:29;62.20;;;27.80;;
60919;SDS011;59039;52.108;19.942;2023-01-10T00:32:55;79.30;;;31.40;;
60919;SDS011;59039;52.108;19.942;2023-01-10T00:35:20;72.60;;;31.40;;
60919;SDS011;59039;52.108;19.942;2023-01-10T00:37:46;69.30;;;29.40;;
60919;SDS011;59039;52.108;19.942;2023-01-10T00:40:11;61.70;;;28.50;;
60919;SDS011;59039;52.108;19.942;2023-01-10T00:42:37;68.10;;;30.20;;
60919;SDS011;59039;52.108;19.942;2023-01-10T00:45:03;64.60;;;28.40;;
60919;SDS011;59039;52.108;19.942;2023-01-10T00:47:28;72.90;;;30.10;;
60919;SDS011;59039;52.108;19.942;2023-01-10T00:49:56;67.40;;;27.40;;
60919;SDS011;59039;52.108;19.942;2023-01-10T00:52:21;67.50;;;26.70;;
60919;SDS011;59039;52.108;19.942;2023-01-10T00:54:47;55.70;;;23.60;;
60919;SDS011;59039;52.108;19.942;2023-01-10T00:57:12;52.60;;;22.90;;
60919;SDS011;59039;52.108;19.942;2023-01-10T00:59:37;49.30;;;23.80;;
60919;SDS011;59039;52.108;19.942;2023-01-10T01:02:03;57.20;;;25.40;;
60919;SDS011;59039;52.108;19.942;2023-01-10T01:04:29;52.80;;;23.50;;
60919;SDS011;59039;52.108;19.942;2023-01-10T01:06:57;55.90;;;25.40;;
60919;SDS011;59039;52.108;19.942;2023-01-10T01:09:22;51.00;;;23.70;;
60919;SDS011;59039;52.108;19.942;2023-01-10T01:11:48;58.00;;;25.50;;
60919;SDS011;59039;52.108;19.942;2023-01-10T01:14:13;59.30;;;25.00;;
60919;SDS011;59039;52.108;19.942;2023-01-10T01:16:42;63.30;;;26.90;;
60919;SDS011;59039;52.108;19.942;2023-01-10T01:19:07;53.20;;;24.20;;
60919;SDS011;59039;52.108;19.942;2023-01-10T01:21:32;58.30;;;25.80;;
60919;SDS011;59039;52.108;19.942;2023-01-10T01:23:58;57.10;;;25.50;;
60919;SDS011;59039;52.108;19.942;2023-01-10T01:26:23;63.80;;;27.30;;
60919;SDS011;59039;52.108;19.942;2023-01-10T01:28:49;62.10;;;27.20;;
60919;SDS011;59039;52.108;19.942;2023-01-10T01:31:15;60.50;;;28.20;;
60919;SDS011;59039;52.108;19.942;2023-01-10T01:33:43;54.30;;;25.10;;
60919;SDS011;59039;52.108;19.942;2023-01-10T01:36:09;56.40;;;26.50;;
60919;SDS011;59039;52.108;19.942;2023-01-10T01:38:36;58.90;;;27.10;;
60919;SDS011;59039;52.108;19.942;2023-01-10T01:41:03;63.90;;;26.90;;
60919;SDS011;59039;52.108;19.942;2023-01-10T01:43:29;56.60;;;26.90;;
60919;SDS011;59039;52.108;19.942;2023-01-10T01:45:55;62.50;;;27.60;;
60919;SDS011;59039;52.108;19.942;2023-01-10T01:48:37;62.90;;;27.70;;
60919;SDS011;59039;52.108;19.942;2023-01-10T01:51:17;67.70;;;28.30;;
60919;SDS011;59039;52.108;19.942;2023-01-10T01:53:56;68.20;;;28.70;;
60919;SDS011;59039;52.108;19.942;2023-01-10T01:56:29;64.90;;;27.80;;
60919;SDS011;59039;52.108;19.942;2023-01-10T01:59:01;62.10;;;26.50;;
60919;SDS011;59039;52.108;19.942;2023-01-10T02:01:34;62.00;;;25.90;;
60919;SDS011;59039;52.108;19.942;2023-01-10T02:04:11;55.40;;;25.80;;
60919;SDS011;59039;52.108;19.942;2023-01-10T02:06:40;55.80;;;24.00;;
60919;SDS011;59039;52.108;19.942;2023-01-10T02:09:28;53.40;;;24.50;;
60919;SDS011;59039;52.108;19.942;2023-01-10T02:14:43;49.40;;;23.40;;
60919;SDS011;59039;52.108;19.942;2023-01-10T02:17:11;54.30;;;24.60;;
60919;SDS011;59039;52.108;19.942;2023-01-10T02:22:33;55.10;;;25.00;;
60919;SDS011;59039;52.108;19.942;2023-01-10T02:36:16;48.00;;;22.60;;
60919;SDS011;59039;52.108;19.942;2023-01-10T02:39:08;63.00;;;22.80;;
60919;SDS011;59039;52.108;19.942;2023-01-10T02:41:44;54.80;;;24.50;;
60919;SDS011;59039;52.108;19.942;2023-01-10T02:47:03;63.10;;;24.40;;
60919;SDS011;59039;52.108;19.942;2023-01-10T02:49:39;56.60;;;24.50;;
60919;SDS011;59039;52.108;19.942;2023-01-10T02:52:06;62.80;;;25.50;;
60919;SDS011;59039;52.108;19.942;2023-01-10T02:54:31;57.10;;;27.30;;
60919;SDS011;59039;52.108;19.942;2023-01-10T03:02:42;51.90;;;22.30;;
60919;SDS011;59039;52.108;19.942;2023-01-10T03:05:30;56.20;;;23.30;;
60919;SDS011;59039;52.108;19.942;2023-01-10T03:10:54;51.10;;;23.50;;
60919;SDS011;59039;52.108;19.942;2023-01-10T03:13:33;53.30;;;23.80;;
60919;SDS011;59039;52.108;19.942;2023-01-10T03:16:04;51.20;;;22.90;;
60919;SDS011;59039;52.108;19.942;2023-01-10T03:18:32;55.00;;;22.80;;
60919;SDS011;59039;52.108;19.942;2023-01-10T03:21:06;57.40;;;24.00;;
60919;SDS011;59039;52.108;19.942;2023-01-10T03:23:33;55.30;;;23.30;;
60919;SDS011;59039;52.108;19.942;2023-01-10T03:26:00;56.30;;;24.70;;
60919;SDS011;59039;52.108;19.942;2023-01-10T03:28:29;62.70;;;25.30;;
60919;SDS011;59039;52.108;19.942;2023-01-10T03:31:09;58.60;;;23.40;;
60919;SDS011;59039;52.108;19.942;2023-01-10T03:33:38;52.60;;;23.70;;
60919;SDS011;59039;52.108;19.942;2023-01-10T03:44:18;63.90;;;25.70;;
60919;SDS011;59039;52.108;19.942;2023-01-10T03:47:10;61.50;;;25.40;;
60919;SDS011;59039;52.108;19.942;2023-01-10T03:49:53;66.00;;;25.00;;
60919;SDS011;59039;52.108;19.942;2023-01-10T03:52:23;73.30;;;27.50;;
60919;SDS011;59039;52.108;19.942;2023-01-10T03:54:55;65.70;;;26.60;;
60919;SDS011;59039;52.108;19.942;2023-01-10T03:57:21;76.30;;;29.70;;
60919;SDS011;59039;52.108;19.942;2023-01-10T03:59:48;66.40;;;28.00;;
60919;SDS011;59039;52.108;19.942;2023-01-10T04:02:16;72.70;;;29.00;;
60919;SDS011;59039;52.108;19.942;2023-01-10T04:04:41;74.00;;;28.00;;
60919;SDS011;59039;52.108;19.942;2023-01-10T04:07:07;65.10;;;28.60;;
60919;SDS011;59039;52.108;19.942;2023-01-10T04:09:32;66.40;;;26.60;;
60919;SDS011;59039;52.108;19.942;2023-01-10T04:11:58;63.30;;;26.40;;
60919;SDS011;59039;52.108;19.942;2023-01-10T04:14:23;67.00;;;27.40;;
60919;SDS011;59039;52.108;19.942;2023-01-10T04:16:48;68.00;;;27.10;;
60919;SDS011;59039;52.108;19.942;2023-01-10T04:19:14;64.30;;;25.90;;
60919;SDS011;59039;52.108;19.942;2023-01-10T04:21:39;62.40;;;26.70;;
60919;SDS011;59039;52.108;19.942;2023-01-10T04:24:05;66.30;;;25.60;;
60919;SDS011;59039;52.108;19.942;2023-01-10T04:26:31;64.50;;;25.60;;
60919;SDS011;59039;52.108;19.942;2023-01-10T04:28:56;58.20;;;22.90;;
60919;SDS011;59039;52.108;19.942;2023-01-10T04:31:21;63.20;;;25.70;;
60919;SDS011;59039;52.108;19.942;2023-01-10T04:33:47;58.70;;;24.40;;
60919;SDS011;59039;52.108;19.942;2023-01-10T04:36:12;64.80;;;25.40;;
60919;SDS011;59039;52.108;19.942;2023-01-10T04:38:37;60.40;;;24.40;;
60919;SDS011;59039;52.108;19.942;2023-01-10T04:41:03;57.20;;;24.30;;
60919;SDS011;59039;52.108;19.942;2023-01-10T04:43:28;60.20;;;23.70;;
60919;SDS011;59039;52.108;19.942;2023-01-10T04:45:54;62.20;;;25.10;;
60919;SDS011;59039;52.108;19.942;2023-01-10T04:48:19;71.00;;;25.00;;
60919;SDS011;59039;52.108;19.942;2023-01-10T04:50:50;62.40;;;24.60;;
60919;SDS011;59039;52.108;19.942;2023-01-10T04:53:16;70.10;;;24.60;;
60919;SDS011;59039;52.108;19.942;2023-01-10T04:55:42;99.40;;;28.60;;
60919;SDS011;59039;52.108;19.942;2023-01-10T04:58:08;72.10;;;26.70;;
60919;SDS011;59039;52.108;19.942;2023-01-10T05:00:33;65.80;;;26.40;;
60919;SDS011;59039;52.108;19.942;2023-01-10T05:02:59;76.80;;;28.70;;
60919;SDS011;59039;52.108;19.942;2023-01-10T05:05:27;70.00;;;26.10;;
60919;SDS011;59039;52.108;19.942;2023-01-10T05:07:52;63.00;;;24.90;;
60919;SDS011;59039;52.108;19.942;2023-01-10T05:10:18;76.00;;;28.20;;
60919;SDS011;59039;52.108;19.942;2023-01-10T05:12:44;67.40;;;27.40;;
60919;SDS011;59039;52.108;19.942;2023-01-10T05:15:10;80.40;;;26.50;;
60919;SDS011;59039;52.108;19.942;2023-01-10T05:17:35;76.40;;;29.10;;
60919;SDS011;59039;52.108;19.942;2023-01-10T05:20:01;74.10;;;27.00;;
60919;SDS011;59039;52.108;19.942;2023-01-10T05:22:26;78.20;;;29.60;;
60919;SDS011;59039;52.108;19.942;2023-01-10T05:24:52;69.20;;;27.00;;
60919;SDS011;59039;52.108;19.942;2023-01-10T05:27:17;72.20;;;27.70;;
60919;SDS011;59039;52.108;19.942;2023-01-10T05:29:43;64.20;;;25.20;;
60919;SDS011;59039;52.108;19.942;2023-01-10T05:32:08;72.60;;;27.60;;
60919;SDS011;59039;52.108;19.942;2023-01-10T05:34:34;71.20;;;27.00;;
60919;SDS011;59039;52.108;19.942;2023-01-10T05:36:59;63.90;;;25.30;;
60919;SDS011;59039;52.108;19.942;2023-01-10T05:39:25;81.20;;;27.50;;
60919;SDS011;59039;52.108;19.942;2023-01-10T05:41:50;72.50;;;27.10;;
60919;SDS011;59039;52.108;19.942;2023-01-10T05:44:16;76.60;;;27.00;;
60919;SDS011;59039;52.108;19.942;2023-01-10T05:46:41;81.70;;;28.00;;
60919;SDS011;59039;52.108;19.942;2023-01-10T05:49:06;81.10;;;29.00;;
60919;SDS011;59039;52.108;19.942;2023-01-10T05:51:32;71.30;;;25.90;;
60919;SDS011;59039;52.108;19.942;2023-01-10T05:53:57;86.60;;;30.60;;
60919;SDS011;59039;52.108;19.942;2023-01-10T05:56:23;85.60;;;30.60;;
60919;SDS011;59039;52.108;19.942;2023-01-10T05:58:49;82.90;;;29.80;;
60919;SDS011;59039;52.108;19.942;2023-01-10T06:01:15;104.80;;;34.10;;
60919;SDS011;59039;52.108;19.942;2023-01-10T06:03:41;87.60;;;32.00;;
60919;SDS011;59039;52.108;19.942;2023-01-10T06:06:07;99.60;;;31.10;;
60919;SDS011;59039;52.108;19.942;2023-01-10T06:08:32;91.60;;;31.50;;
60919;SDS011;59039;52.108;19.942;2023-01-10T06:10:58;87.90;;;32.20;;
60919;SDS011;59039;52.108;19.942;2023-01-10T06:13:23;90.50;;;30.90;;
60919;SDS011;59039;52.108;19.942;2023-01-10T06:15:48;77.70;;;29.10;;
60919;SDS011;59039;52.108;19.942;2023-01-10T06:18:14;73.80;;;26.70;;
60919;SDS011;59039;52.108;19.942;2023-01-10T06:20:40;64.20;;;26.50;;
60919;SDS011;59039;52.108;19.942;2023-01-10T06:23:07;64.70;;;25.70;;
60919;SDS011;59039;52.108;19.942;2023-01-10T06:25:34;69.40;;;24.70;;
60919;SDS011;59039;52.108;19.942;2023-01-10T06:28:00;76.80;;;26.70;;
60919;SDS011;59039;52.108;19.942;2023-01-10T06:30:26;74.50;;;27.70;;
60919;SDS011;59039;52.108;19.942;2023-01-10T06:32:51;90.90;;;32.60;;
60919;SDS011;59039;52.108;19.942;2023-01-10T06:35:23;97.60;;;34.00;;
60919;SDS011;59039;52.108;19.942;2023-01-10T06:37:49;101.40;;;39.30;;
60919;SDS011;59039;52.108;19.942;2023-01-10T06:40:14;101.80;;;37.50;;
60919;SDS011;59039;52.108;19.942;2023-01-10T06:42:40;99.40;;;33.60;;
60919;SDS011;59039;52.108;19.942;2023-01-10T06:45:05;88.40;;;29.90;;
60919;SDS011;59039;52.108;19.942;2023-01-10T06:47:31;86.20;;;30.40;;
60919;SDS011;59039;52.108;19.942;2023-01-10T06:49:56;76.70;;;29.00;;
60919;SDS011;59039;52.108;19.942;2023-01-10T06:52:22;78.30;;;29.20;;
60919;SDS011;59039;52.108;19.942;2023-01-10T06:54:47;78.80;;;28.40;;
60919;SDS011;59039;52.108;19.942;2023-01-10T06:57:13;77.10;;;26.00;;
60919;SDS011;59039;52.108;19.942;2023-01-10T06:59:47;79.40;;;30.00;;
60919;SDS011;59039;52.108;19.942;2023-01-10T07:02:13;72.70;;;25.30;;
60919;SDS011;59039;52.108;19.942;2023-01-10T07:04:38;76.50;;;27.40;;
60919;SDS011;59039;52.108;19.942;2023-01-10T07:07:04;75.70;;;27.00;;
60919;SDS011;59039;52.108;19.942;2023-01-10T07:09:29;78.60;;;27.50;;
60919;SDS011;59039;52.108;19.942;2023-01-10T07:11:55;67.10;;;24.80;;
60919;SDS011;59039;52.108;19.942;2023-01-10T07:14:22;74.80;;;28.80;;
60919;SDS011;59039;52.108;19.942;2023-01-10T07:16:48;89.50;;;28.30;;
60919;SDS011;59039;52.108;19.942;2023-01-10T07:19:13;84.50;;;30.10;;
60919;SDS011;59039;52.108;19.942;2023-01-10T07:21:39;83.50;;;27.90;;
60919;SDS011;59039;52.108;19.942;2023-01-10T07:24:13;80.10;;;30.10;;
60919;SDS011;59039;52.108;19.942;2023-01-10T07:26:39;86.90;;;30.20;;
60919;SDS011;59039;52.108;19.942;2023-01-10T07:29:04;84.10;;;30.10;;
60919;SDS011;59039;52.108;19.942;2023-01-10T07:31:30;88.60;;;30.20;;
60919;SDS011;59039;52.108;19.942;2023-01-10T07:33:55;81.30;;;28.80;;
60919;SDS011;59039;52.108;19.942;2023-01-10T07:36:20;77.30;;;28.50;;
60919;SDS011;59039;52.108;19.942;2023-01-10T07:38:46;77.40;;;29.00;;
60919;SDS011;59039;52.108;19.942;2023-01-10T07:41:11;84.10;;;29.60;;
60919;SDS011;59039;52.108;19.942;2023-01-10T07:43:36;79.20;;;29.30;;
60919;SDS011;59039;52.108;19.942;2023-01-10T07:46:03;72.50;;;28.20;;
60919;SDS011;59039;52.108;19.942;2023-01-10T07:48:30;69.70;;;25.20;;
60919;SDS011;59039;52.108;19.942;2023-01-10T07:50:58;73.40;;;27.30;;
60919;SDS011;59039;52.108;19.942;2023-01-10T07:53:27;72.10;;;27.00;;
60919;SDS011;59039;52.108;19.942;2023-01-10T07:55:53;83.00;;;27.60;;
60919;SDS011;59039;52.108;19.942;2023-01-10T07:58:18;72.60;;;26.50;;
60919;SDS011;59039;52.108;19.942;2023-01-10T08:00:44;72.40;;;26.00;;
60919;SDS011;59039;52.108;19.942;2023-01-10T08:03:12;77.70;;;26.90;;
60919;SDS011;59039;52.108;19.942;2023-01-10T08:05:38;83.50;;;28.20;;
60919;SDS011;59039;52.108;19.942;2023-01-10T08:08:06;83.20;;;29.60;;
60919;SDS011;59039;52.108;19.942;2023-01-10T08:10:36;77.70;;;26.80;;
60919;SDS011;59039;52.108;19.942;2023-01-10T08:13:03;70.60;;;25.20;;
60919;SDS011;59039;52.108;19.942;2023-01-10T08:15:29;71.80;;;26.10;;
60919;SDS011;59039;52.108;19.942;2023-01-10T08:17:58;71.00;;;26.00;;
60919;SDS011;59039;52.108;19.942;2023-01-10T08:20:24;64.00;;;23.50;;
60919;SDS011;59039;52.108;19.942;2023-01-10T08:22:53;70.70;;;25.80;;
60919;SDS011;59039;52.108;19.942;2023-01-10T08:25:20;72.70;;;25.80;;
60919;SDS011;59039;52.108;19.942;2023-01-10T08:27:45;71.50;;;25.50;;
60919;SDS011;59039;52.108;19.942;2023-01-10T08:30:11;67.80;;;24.40;;
60919;SDS011;59039;52.108;19.942;2023-01-10T08:32:37;80.40;;;26.40;;
60919;SDS011;59039;52.108;19.942;2023-01-10T08:35:05;81.70;;;28.10;;
60919;SDS011;59039;52.108;19.942;2023-01-10T08:37:31;82.00;;;26.30;;
60919;SDS011;59039;52.108;19.942;2023-01-10T08:39:56;81.10;;;28.10;;
60919;SDS011;59039;52.108;19.942;2023-01-10T08:42:22;82.10;;;27.70;;
60919;SDS011;59039;52.108;19.942;2023-01-10T08:44:47;69.10;;;24.80;;
60919;SDS011;59039;52.108;19.942;2023-01-10T08:47:13;62.70;;;24.50;;
60919;SDS011;59039;52.108;19.942;2023-01-10T08:49:38;65.60;;;25.60;;
60919;SDS011;59039;52.108;19.942;2023-01-10T08:52:06;72.40;;;26.50;;
60919;SDS011;59039;52.108;19.942;2023-01-10T08:54:32;71.50;;;25.50;;
60919;SDS011;59039;52.108;19.942;2023-01-10T08:56:57;70.80;;;26.10;;
60919;SDS011;59039;52.108;19.942;2023-01-10T08:59:26;59.60;;;25.10;;
60919;SDS011;59039;52.108;19.942;2023-01-10T09:01:51;61.40;;;22.60;;
60919;SDS011;59039;52.108;19.942;2023-01-10T09:04:17;72.70;;;25.20;;
60919;SDS011;59039;52.108;19.942;2023-01-10T09:06:42;68.40;;;24.30;;
60919;SDS011;59039;52.108;19.942;2023-01-10T09:09:08;69.10;;;24.10;;
60919;SDS011;59039;52.108;19.942;2023-01-10T09:11:33;65.30;;;24.50;;
60919;SDS011;59039;52.108;19.942;2023-01-10T09:13:58;64.40;;;23.70;;
60919;SDS011;59039;52.108;19.942;2023-01-10T09:16:24;73.00;;;24.50;;
60919;SDS011;59039;52.108;19.942;2023-01-10T09:18:52;62.60;;;24.50;;
60919;SDS011;59039;52.108;19.942;2023-01-10T09:21:18;60.40;;;24.80;;
60919;SDS011;59039;52.108;19.942;2023-01-10T09:23:43;60.50;;;23.20;;
60919;SDS011;59039;52.108;19.942;2023-01-10T09:26:08;57.80;;;23.90;;
60919;SDS011;59039;52.108;19.942;2023-01-10T09:28:34;68.00;;;23.80;;
60919;SDS011;59039;52.108;19.942;2023-01-10T09:30:59;64.20;;;26.40;;
60919;SDS011;59039;52.108;19.942;2023-01-10T09:33:25;81.10;;;28.60;;
60919;SDS011;59039;52.108;19.942;2023-01-10T09:35:50;74.80;;;28.70;;
60919;SDS011;59039;52.108;19.942;2023-01-10T09:38:16;80.20;;;29.40;;
60919;SDS011;59039;52.108;19.942;2023-01-10T09:52:03;74.50;;;26.60;;
60919;SDS011;59039;52.108;19.942;2023-01-10T09:54:40;85.10;;;31.10;;
60919;SDS011;59039;52.108;19.942;2023-01-10T09:57:09;83.30;;;30.20;;
60919;SDS011;59039;52.108;19.942;2023-01-10T09:59:43;80.80;;;28.40;;
60919;SDS011;59039;52.108;19.942;2023-01-10T10:05:15;77.80;;;28.30;;
60919;SDS011;59039;52.108;19.942;2023-01-10T10:07:43;83.60;;;29.80;;
60919;SDS011;59039;52.108;19.942;2023-01-10T10:10:11;87.50;;;29.80;;
60919;SDS011;59039;52.108;19.942;2023-01-10T10:13:20;87.70;;;30.00;;
60919;SDS011;59039;52.108;19.942;2023-01-10T10:21:00;75.50;;;29.10;;
60919;SDS011;59039;52.108;19.942;2023-01-10T10:28:56;74.00;;;31.60;;
60919;SDS011;59039;52.108;19.942;2023-01-10T10:34:36;80.30;;;30.10;;
60919;SDS011;59039;52.108;19.942;2023-01-10T10:37:12;80.30;;;29.90;;
60919;SDS011;59039;52.108;19.942;2023-01-10T10:39:49;93.20;;;34.80;;
60919;SDS011;59039;52.108;19.942;2023-01-10T10:42:19;88.90;;;32.20;;
60919;SDS011;59039;52.108;19.942;2023-01-10T10:44:58;92.00;;;32.50;;
60919;SDS011;59039;52.108;19.942;2023-01-10T10:47:30;90.50;;;32.00;;
60919;SDS011;59039;52.108;19.942;2023-01-10T10:49:59;96.20;;;34.30;;
60919;SDS011;59039;52.108;19.942;2023-01-10T10:52:55;78.60;;;32.20;;
60919;SDS011;59039;52.108;19.942;2023-01-10T10:55:28;87.30;;;31.60;;
60919;SDS011;59039;52.108;19.942;2023-01-10T10:57:57;89.10;;;31.40;;
60919;SDS011;59039;52.108;19.942;2023-01-10T11:00:23;87.30;;;32.70;;
60919;SDS011;59039;52.108;19.942;2023-01-10T11:02:50;77.80;;;30.20;;
60919;SDS011;59039;52.108;19.942;2023-01-10T11:05:22;75.00;;;29.10;;
60919;SDS011;59039;52.108;19.942;2023-01-10T11:07:58;77.40;;;28.90;;
60919;SDS011;59039;52.108;19.942;2023-01-10T11:10:27;81.50;;;31.20;;
60919;SDS011;59039;52.108;19.942;2023-01-10T11:12:52;79.50;;;30.30;;
60919;SDS011;59039;52.108;19.942;2023-01-10T11:15:34;77.50;;;29.20;;
60919;SDS011;59039;52.108;19.942;2023-01-10T11:18:05;81.90;;;29.50;;
60919;SDS011;59039;52.108;19.942;2023-01-10T11:20:50;85.30;;;31.40;;
60919;SDS011;59039;52.108;19.942;2023-01-10T11:26:00;80.80;;;30.10;;
60919;SDS011;59039;52.108;19.942;2023-01-10T11:28:28;83.00;;;30.10;;
60919;SDS011;59039;52.108;19.942;2023-01-10T11:30:55;87.80;;;32.10;;
60919;SDS011;59039;52.108;19.942;2023-01-10T11:33:22;73.30;;;30.10;;
60919;SDS011;59039;52.108;19.942;2023-01-10T11:35:59;84.10;;;31.90;;
60919;SDS011;59039;52.108;19.942;2023-01-10T11:38:30;80.70;;;30.30;;
60919;SDS011;59039;52.108;19.942;2023-01-10T11:41:00;81.00;;;30.90;;
60919;SDS011;59039;52.108;19.942;2023-01-10T11:46:03;71.60;;;29.90;;
60919;SDS011;59039;52.108;19.942;2023-01-10T11:54:16;77.90;;;32.70;;
60919;SDS011;59039;52.108;19.942;2023-01-10T11:56:53;89.40;;;35.50;;
60919;SDS011;59039;52.108;19.942;2023-01-10T11:59:19;70.10;;;30.40;;
60919;SDS011;59039;52.108;19.942;2023-01-10T12:01:52;75.10;;;31.30;;
60919;SDS011;59039;52.108;19.942;2023-01-10T12:04:25;73.20;;;31.30;;
60919;SDS011;59039;52.108;19.942;2023-01-10T12:06:56;77.00;;;31.70;;
60919;SDS011;59039;52.108;19.942;2023-01-10T12:09:39;77.70;;;32.00;;
60919;SDS011;59039;52.108;19.942;2023-01-10T12:14:46;67.30;;;28.80;;
60919;SDS011;59039;52.108;19.942;2023-01-10T12:17:16;73.90;;;31.00;;
60919;SDS011;59039;52.108;19.942;2023-01-10T12:19:46;72.80;;;31.30;;
60919;SDS011;59039;52.108;19.942;2023-01-10T12:22:13;80.90;;;34.90;;
60919;SDS011;59039;52.108;19.942;2023-01-10T12:24:39;70.70;;;32.00;;
60919;SDS011;59039;52.108;19.942;2023-01-10T12:27:10;75.40;;;31.20;;
60919;SDS011;59039;52.108;19.942;2023-01-10T12:29:50;69.70;;;30.20;;
60919;SDS011;59039;52.108;19.942;2023-01-10T12:32:24;66.50;;;27.80;;
60919;SDS011;59039;52.108;19.942;2023-01-10T12:35:00;67.70;;;30.20;;
60919;SDS011;59039;52.108;19.942;2023-01-10T12:37:31;65.60;;;28.00;;
60919;SDS011;59039;52.108;19.942;2023-01-10T12:40:10;69.90;;;28.10;;
60919;SDS011;59039;52.108;19.942;2023-01-10T12:42:45;67.30;;;28.80;;
60919;SDS011;59039;52.108;19.942;2023-01-10T12:45:23;63.90;;;27.70;;
60919;SDS011;59039;52.108;19.942;2023-01-10T12:51:21;64.10;;;29.00;;
60919;SDS011;59039;52.108;19.942;2023-01-10T12:56:05;57.60;;;26.90;;
60919;SDS011;59039;52.108;19.942;2023-01-10T12:58:47;64.80;;;27.90;;
60919;SDS011;59039;52.108;19.942;2023-01-10T13:01:37;61.10;;;26.60;;
60919;SDS011;59039;52.108;19.942;2023-01-10T13:04:08;60.20;;;28.70;;
60919;SDS011;59039;52.108;19.942;2023-01-10T13:06:37;69.60;;;29.00;;
60919;SDS011;59039;52.108;19.942;2023-01-10T13:09:07;82.30;;;34.60;;
60919;SDS011;59039;52.108;19.942;2023-01-10T13:11:41;75.30;;;33.40;;
60919;SDS011;59039;52.108;19.942;2023-01-10T13:14:33;74.30;;;33.20;;
60919;SDS011;59039;52.108;19.942;2023-01-10T13:19:41;70.90;;;32.50;;
60919;SDS011;59039;52.108;19.942;2023-01-10T13:22:28;69.00;;;31.20;;
60919;SDS011;59039;52.108;19.942;2023-01-10T13:24:56;75.90;;;30.60;;
60919;SDS011;59039;52.108;19.942;2023-01-10T13:27:28;68.00;;;29.10;;
60919;SDS011;59039;52.108;19.942;2023-01-10T13:29:56;61.40;;;27.60;;
60919;SDS011;59039;52.108;19.942;2023-01-10T13:32:22;71.70;;;30.00;;
60919;SDS011;59039;52.108;19.942;2023-01-10T13:34:52;65.10;;;29.40;;
60919;SDS011;59039;52.108;19.942;2023-01-10T13:37:25;57.40;;;27.70;;
60919;SDS011;59039;52.108;19.942;2023-01-10T13:39:56;64.30;;;28.10;;
60919;SDS011;59039;52.108;19.942;2023-01-10T13:52:52;76.40;;;31.60;;
60919;SDS011;59039;52.108;19.942;2023-01-10T13:55:22;75.80;;;32.90;;
60919;SDS011;59039;52.108;19.942;2023-01-10T13:57:54;76.80;;;32.40;;
60919;SDS011;59039;52.108;19.942;2023-01-10T14:00:28;74.90;;;33.20;;
60919;SDS011;59039;52.108;19.942;2023-01-10T14:03:07;80.00;;;35.80;;
60919;SDS011;59039;52.108;19.942;2023-01-10T14:06:01;84.00;;;35.30;;
60919;SDS011;59039;52.108;19.942;2023-01-10T14:08:30;87.00;;;38.50;;
60919;SDS011;59039;52.108;19.942;2023-01-10T14:11:11;85.50;;;38.70;;
60919;SDS011;59039;52.108;19.942;2023-01-10T14:13:37;96.10;;;38.00;;
60919;SDS011;59039;52.108;19.942;2023-01-10T14:19:03;100.80;;;40.00;;
60919;SDS011;59039;52.108;19.942;2023-01-10T14:21:34;99.90;;;40.50;;
60919;SDS011;59039;52.108;19.942;2023-01-10T14:24:05;92.50;;;37.50;;
60919;SDS011;59039;52.108;19.942;2023-01-10T14:26:47;89.60;;;39.40;;
60919;SDS011;59039;52.108;19.942;2023-01-10T14:29:17;100.30;;;41.80;;
60919;SDS011;59039;52.108;19.942;2023-01-10T14:31:44;97.00;;;40.70;;
60919;SDS011;59039;52.108;19.942;2023-01-10T14:34:21;103.60;;;40.90;;
60919;SDS011;59039;52.108;19.942;2023-01-10T14:39:30;83.60;;;37.30;;
60919;SDS011;59039;52.108;19.942;2023-01-10T14:41:57;88.60;;;38.20;;
60919;SDS011;59039;52.108;19.942;2023-01-10T14:47:35;82.10;;;35.20;;
60919;SDS011;59039;52.108;19.942;2023-01-10T14:50:01;80.60;;;37.20;;
60919;SDS011;59039;52.108;19.942;2023-01-10T14:52:46;84.10;;;37.20;;
60919;SDS011;59039;52.108;19.942;2023-01-10T14:55:13;86.60;;;37.80;;
60919;SDS011;59039;52.108;19.942;2023-01-10T14:57:58;101.30;;;38.60;;
60919;SDS011;59039;52.108;19.942;2023-01-10T15:02:59;89.80;;;35.40;;
60919;SDS011;59039;52.108;19.942;2023-01-10T15:05:47;99.30;;;38.60;;
60919;SDS011;59039;52.108;19.942;2023-01-10T15:08:14;83.40;;;34.50;;
60919;SDS011;59039;52.108;19.942;2023-01-10T15:10:54;93.30;;;38.40;;
60919;SDS011;59039;52.108;19.942;2023-01-10T15:13:24;85.10;;;35.80;;
60919;SDS011;59039;52.108;19.942;2023-01-10T15:15:51;85.00;;;36.80;;
60919;SDS011;59039;52.108;19.942;2023-01-10T15:18:25;87.40;;;37.80;;
60919;SDS011;59039;52.108;19.942;2023-01-10T15:20:57;94.90;;;39.20;;
60919;SDS011;59039;52.108;19.942;2023-01-10T15:23:24;101.10;;;40.20;;
60919;SDS011;59039;52.108;19.942;2023-01-10T15:25:56;116.90;;;44.30;;
60919;SDS011;59039;52.108;19.942;2023-01-10T15:28:26;142.20;;;54.80;;
60919;SDS011;59039;52.108;19.942;2023-01-10T15:30:52;151.40;;;61.30;;
60919;SDS011;59039;52.108;19.942;2023-01-10T15:33:19;157.90;;;55.30;;
60919;SDS011;59039;52.108;19.942;2023-01-10T15:35:52;170.60;;;59.60;;
60919;SDS011;59039;52.108;19.942;2023-01-10T15:38:18;143.90;;;53.20;;
60919;SDS011;59039;52.108;19.942;2023-01-10T15:40:51;147.60;;;52.90;;
60919;SDS011;59039;52.108;19.942;2023-01-10T15:43:22;134.70;;;49.80;;
60919;SDS011;59039;52.108;19.942;2023-01-10T15:45:50;126.80;;;48.90;;
60919;SDS011;59039;52.108;19.942;2023-01-10T15:51:14;128.70;;;48.10;;
60919;SDS011;59039;52.108;19.942;2023-01-10T15:56:31;142.80;;;53.50;;
60919;SDS011;59039;52.108;19.942;2023-01-10T15:58:59;136.80;;;51.60;;
60919;SDS011;59039;52.108;19.942;2023-01-10T16:01:25;131.40;;;49.90;;
60919;SDS011;59039;52.108;19.942;2023-01-10T16:03:52;144.30;;;46.60;;
60919;SDS011;59039;52.108;19.942;2023-01-10T16:08:52;128.90;;;46.60;;
60919;SDS011;59039;52.108;19.942;2023-01-10T16:14:00;140.20;;;52.00;;
60919;SDS011;59039;52.108;19.942;2023-01-10T16:16:25;167.70;;;58.70;;
60919;SDS011;59039;52.108;19.942;2023-01-10T16:18:51;217.10;;;66.90;;